Tunnel City, WI

2:47 PM CST on March 03, 2015 (GMT -0600)
WIDOT Tomah - I-94 @ USH 12 | Change Station
CLOSE
Current Station
Personal Weather Station
Location: Tomah, WI
Elevation: 990 ft
Nearby Weather Stations
Active Advisory: Winter Weather Statement Active Notice: Public Information Statement

Elev 990 ft 44.02 °N, 90.50 °W | Updated 43 minutes ago

Overcast
Overcast
28 °F
Feels Like 19 °F
N
9
Wind Variable Wind from SW
Gusts 15.0 mph

Today
High -- | Low -- °F
--% Chance of Precip.
Yesterday
High -- | Low -- °F
Precip. -- in
6:36 AM 5:52 PM
Waxing Gibbous, 97% visible
Pressure 29.64 in
Visibility 10.0 miles
Clouds Overcast 2000 ft
Windchill 19 °F
Dew Point 26 °F
Humidity 92%
Rainfall -999.00 in
Snow Depth Not available.
UV 1 out of 12
Pollen .40 out of 12
Air Quality Not available.
Flu Activity Not available.
METAR KCMY 032035Z AUTO 29008KT 10SM OVC020 M01/M05 A2964 RMK AO2 T10111049

More Conditions Fewer Conditions

Pressure 29.64 in
Visibility 10.0 miles
Clouds Overcast 2000 ft
Windchill 19 °F
Dew Point 26 °F
Humidity 92%
Rainfall -999.00 in
Snow Depth Not available.
UV 1 out of 12
Pollen .40 out of 12
Air Quality Not available.
Flu Activity Not available.
METAR KCMY 032035Z AUTO 29008KT 10SM OVC020 M01/M05 A2964 RMK AO2 T10111049

More Conditions Fewer Conditions

10-Day Weather Forecast

Almanac

Astronomy

Mar. 03, 2015 Rise Set
Actual Time
Civil Twilight
Nautical Twilight
Astronomical Twilight
Moon
Length of Visible Light
Length of Day
Tomorrow will be .
, % of the Moon is Illuminated

Today's Extremes

State Highs State Lows

Community

WunderPhotos

Upload Photos

1,802,246 photos uploaded!

WunderBlogs® & News

Nearby

Air Quality

  Air Quality AQ Index Pollutant
Not available.

Snow Depth

Station Depth Elevation

Earthquake Activity

City Distance Mag. Time & Date
Minimum magnitude displayed is 2.5.

Coastal Water Temperatures

Place Temperature

Nearby Weather Stations

Winter Weather Statement
Statement as of 2:41 PM CST on March 03, 2015

... Winter Weather Advisory is cancelled...

The National Weather Service in La Crosse has cancelled the
Winter Weather Advisory.

.The wintry mix of freezing drizzle and snow has moved out of the
area. Therefore... the Winter Weather Advisory has been cancelled.


Das